Time;durP1;ratioP1;P1;durP2;ratioP2;P2;SDS_P1;SDS_P2;PMS_P1;PMS_P2;Temp;Humidity;BMP_temperature;BMP_pressure;BME280_temperature;BME280_humidity;BME280_pressure;Samples;Min_cycle;Max_cycle;Signal;HPM_P1;HPM_P2
2022/10/15 00:01:11;;;;;;;6.10;3.50;;;12.10;99.90;;;;;;4931663;29;20139;-81
2022/10/15 00:03:38;;;;;;;3.33;2.38;;;11.60;99.90;;;;;;4931526;29;20055;-82
2022/10/15 00:06:15;;;;;;;1.27;1.15;;;11.60;99.90;;;;;;4932933;29;20052;-81
2022/10/15 00:08:42;;;;;;;3.30;2.38;;;11.60;99.90;;;;;;4943128;29;20075;-81
2022/10/15 00:11:14;;;;;;;3.53;2.80;;;11.60;99.90;;;;;;4951478;29;20044;-83
2022/10/15 00:13:40;;;;;;;1.48;1.08;;;11.70;99.90;;;;;;4941657;29;20079;-82
2022/10/15 00:16:12;;;;;;;1.33;1.23;;;11.70;99.90;;;;;;4931456;29;20550;-81
2022/10/15 00:18:38;;;;;;;1.67;1.15;;;11.70;99.90;;;;;;4931997;29;20043;-80
2022/10/15 00:21:13;;;;;;;2.95;2.08;;;11.70;99.90;;;;;;4931830;29;20040;-81
2022/10/15 00:23:38;;;;;;;1.92;1.48;;;11.70;99.90;;;;;;4938921;29;20051;-77
2022/10/15 00:26:07;;;;;;;3.13;1.75;;;11.70;99.90;;;;;;4951398;29;20054;-80
2022/10/15 00:28:32;;;;;;;1.88;1.73;;;11.70;99.90;;;;;;4950867;29;20047;-79
2022/10/15 00:31:07;;;;;;;3.92;2.50;;;11.70;99.90;;;;;;4951893;29;20042;-80
2022/10/15 00:33:34;;;;;;;3.47;2.08;;;11.70;99.90;;;;;;4946027;29;20058;-79
2022/10/15 00:36:02;;;;;;;2.42;2.22;;;11.70;99.90;;;;;;4932439;29;20054;-81
2022/10/15 00:38:28;;;;;;;2.10;1.90;;;11.60;99.90;;;;;;4931612;29;20080;-81
2022/10/15 00:40:54;;;;;;;2.92;1.88;;;11.60;99.90;;;;;;4913708;29;20052;-81
2022/10/15 00:43:38;;;;;;;3.20;2.22;;;11.60;99.90;;;;;;4930509;29;20054;-80
2022/10/15 00:46:05;;;;;;;9.75;2.58;;;11.60;99.90;;;;;;4940014;29;20050;-81
2022/10/15 00:48:31;;;;;;;3.67;2.50;;;11.60;99.90;;;;;;4932544;29;20043;-83
2022/10/15 00:51:01;;;;;;;2.22;1.42;;;11.60;99.90;;;;;;4930864;29;20060;-81
2022/10/15 00:53:26;;;;;;;3.30;2.67;;;11.60;99.90;;;;;;4931240;29;20062;-81
2022/10/15 00:55:52;;;;;;;4.18;2.60;;;11.60;99.90;;;;;;4931378;29;20059;-81
2022/10/15 00:58:26;;;;;;;1.55;1.45;;;11.60;99.90;;;;;;4937931;29;20051;-81
2022/10/15 01:00:53;;;;;;;3.03;2.72;;;11.60;99.90;;;;;;4952628;28;20107;-82
2022/10/15 01:03:18;;;;;;;34.10;3.03;;;11.60;99.90;;;;;;4986190;28;20055;-83
2022/10/15 01:05:47;;;;;;;3.03;2.53;;;11.60;99.90;;;;;;4955058;28;20047;-83
2022/10/15 01:08:12;;;;;;;7.30;2.50;;;11.60;99.90;;;;;;4955573;28;20053;-81
2022/10/15 01:10:53;;;;;;;12.45;3.03;;;11.60;99.90;;;;;;4969195;28;20042;-82
2022/10/15 01:13:42;;;;;;;4.43;2.70;;;11.60;99.90;;;;;;4969590;28;20050;-81
2022/10/15 01:16:25;;;;;;;3.13;2.42;;;11.60;99.90;;;;;;4950008;29;20097;-81
2022/10/15 01:18:55;;;;;;;2.58;2.38;;;11.60;99.90;;;;;;4960019;28;20042;-82
2022/10/15 01:21:59;;;;;;;4.22;2.92;;;11.60;99.90;;;;;;4968470;28;20051;-80
2022/10/15 01:24:38;;;;;;;3.53;2.25;;;11.60;99.90;;;;;;4955127;28;20055;-80
2022/10/15 01:27:40;;;;;;;5.13;3.00;;;11.60;99.90;;;;;;4953717;28;20409;-81
2022/10/15 01:30:28;;;;;;;14.70;4.60;;;11.60;99.90;;;;;;4940685;29;20047;-83
2022/10/15 01:33:12;;;;;;;2.85;2.22;;;11.60;99.90;;;;;;4944965;29;20405;-83
2022/10/15 01:36:00;;;;;;;5.22;2.38;;;11.60;99.90;;;;;;4950469;29;20051;-82
2022/10/15 01:38:50;;;;;;;3.78;2.10;;;11.50;99.90;;;;;;4954932;28;20043;-81
2022/10/15 01:41:41;;;;;;;1.88;1.15;;;11.50;99.90;;;;;;4968301;28;20097;-81
2022/10/15 01:44:21;;;;;;;4.43;3.03;;;11.50;99.90;;;;;;4968303;28;20049;-82
2022/10/15 01:46:57;;;;;;;8.10;2.80;;;11.50;99.90;;;;;;4968153;28;20065;-80
2022/10/15 01:49:27;;;;;;;6.35;2.67;;;11.50;99.90;;;;;;4967672;28;20046;-80
2022/10/15 01:51:54;;;;;;;4.63;3.85;;;11.50;99.90;;;;;;4951082;28;20818;-82
2022/10/15 01:54:23;;;;;;;3.58;1.63;;;11.50;99.90;;;;;;4968459;28;20100;-81
2022/10/15 01:56:51;;;;;;;6.80;2.92;;;11.60;99.90;;;;;;4969239;28;20089;-82
2022/10/15 01:59:21;;;;;;;2.83;2.33;;;11.60;99.90;;;;;;4958480;28;20058;-81
2022/10/15 02:01:47;;;;;;;4.97;3.00;;;11.60;99.90;;;;;;4942734;28;20063;-81
2022/10/15 02:04:28;;;;;;;5.03;4.25;;;11.60;99.90;;;;;;4930653;29;20511;-80
2022/10/15 02:07:23;;;;;;;2.80;2.05;;;11.60;99.90;;;;;;4930403;29;20109;-81
2022/10/15 02:10:10;;;;;;;5.20;3.15;;;11.60;99.90;;;;;;4945959;29;20047;-82
2022/10/15 02:13:11;;;;;;;1.67;1.38;;;11.60;99.90;;;;;;4930512;29;20043;-82
2022/10/15 02:15:58;;;;;;;17.33;3.28;;;11.60;99.90;;;;;;4931611;29;20062;-79
2022/10/15 02:18:44;;;;;;;5.57;3.22;;;11.70;99.90;;;;;;4930693;29;20043;-80
2022/10/15 02:21:52;;;;;;;10.00;4.67;;;11.70;99.90;;;;;;4934036;29;20087;-82
2022/10/15 02:24:42;;;;;;;1.17;1.08;;;11.70;99.90;;;;;;4916885;29;20370;-81
2022/10/15 02:27:11;;;;;;;1.98;1.63;;;11.60;99.90;;;;;;4932454;29;20102;-82
2022/10/15 02:29:40;;;;;;;4.40;2.53;;;11.60;99.90;;;;;;4933251;29;20051;-81
2022/10/15 02:32:07;;;;;;;3.67;2.20;;;11.60;99.90;;;;;;4933665;29;20044;-79
2022/10/15 02:34:34;;;;;;;6.90;4.25;;;11.60;99.90;;;;;;4933839;29;20051;-81
2022/10/15 02:37:04;;;;;;;4.70;3.08;;;11.60;99.90;;;;;;4933729;29;20048;-79
2022/10/15 02:39:29;;;;;;;5.57;2.72;;;11.60;99.90;;;;;;4944350;29;20046;-78
2022/10/15 02:41:56;;;;;;;6.10;2.13;;;11.60;99.90;;;;;;4952145;29;20494;-80
2022/10/15 02:44:21;;;;;;;20.38;3.53;;;11.60;99.90;;;;;;4953527;29;20055;-80
2022/10/15 02:46:47;;;;;;;3.00;1.92;;;12.30;99.90;;;;;;4952941;29;20062;-79
2022/10/15 02:49:13;;;;;;;5.53;2.15;;;11.60;99.90;;;;;;4952569;29;20047;-81
2022/10/15 02:51:38;;;;;;;7.75;3.10;;;11.60;99.90;;;;;;4952288;29;20043;-80
2022/10/15 02:54:05;;;;;;;8.43;2.88;;;11.60;99.90;;;;;;4952576;29;20047;-80
2022/10/15 02:56:31;;;;;;;1.90;1.73;;;11.60;99.90;;;;;;4952945;29;20079;-78
2022/10/15 02:58:57;;;;;;;2.75;2.28;;;11.70;99.90;;;;;;4946183;29;20126;-81
2022/10/15 03:01:23;;;;;;;2.38;2.13;;;11.60;99.90;;;;;;4934687;28;20130;-79
2022/10/15 03:03:48;;;;;;;2.38;2.05;;;11.60;99.90;;;;;;4933212;29;20065;-80
2022/10/15 03:06:14;;;;;;;4.28;3.55;;;11.60;99.90;;;;;;4932924;29;20056;-80
2022/10/15 03:08:43;;;;;;;4.45;3.55;;;11.60;99.90;;;;;;4915499;29;20051;-82
2022/10/15 03:11:10;;;;;;;5.00;2.58;;;11.60;99.90;;;;;;4933226;29;20047;-79
2022/10/15 03:13:40;;;;;;;3.17;2.50;;;11.60;99.90;;;;;;4933825;29;20044;-80
2022/10/15 03:16:07;;;;;;;4.93;3.40;;;11.50;99.90;;;;;;4933784;29;20661;-79
2022/10/15 03:18:33;;;;;;;1.95;1.40;;;11.50;99.90;;;;;;4937014;29;20062;-80
2022/10/15 03:20:59;;;;;;;4.32;1.85;;;11.50;99.90;;;;;;4952825;29;20052;-80
2022/10/15 03:23:26;;;;;;;2.50;1.83;;;11.50;99.90;;;;;;4952536;29;20153;-80
2022/10/15 03:25:51;;;;;;;1.95;1.75;;;11.50;99.90;;;;;;4952682;29;20074;-79
2022/10/15 03:28:17;;;;;;;4.68;2.72;;;11.50;99.90;;;;;;4952440;29;20559;-81
2022/10/15 03:30:43;;;;;;;3.05;1.88;;;11.50;99.90;;;;;;4933436;29;20539;-79
2022/10/15 03:33:09;;;;;;;3.08;2.35;;;12.10;99.90;;;;;;4934014;29;20044;-79
2022/10/15 03:35:35;;;;;;;1.35;1.13;;;11.50;99.90;;;;;;4933488;29;20051;-82
2022/10/15 03:38:01;;;;;;;3.42;2.75;;;11.50;99.90;;;;;;4916043;29;20138;-79
2022/10/15 03:40:26;;;;;;;3.65;2.38;;;11.50;99.90;;;;;;4956375;29;20027;-82
2022/10/15 03:42:52;;;;;;;1.40;1.30;;;11.50;99.90;;;;;;4940729;29;20043;-79
2022/10/15 03:45:23;;;;;;;1.15;1.05;;;11.50;99.90;;;;;;4933898;29;20125;-80
2022/10/15 03:47:49;;;;;;;5.78;3.97;;;11.40;99.90;;;;;;4933266;29;20056;-81
2022/10/15 03:50:15;;;;;;;3.70;2.65;;;11.80;99.90;;;;;;4947539;29;20098;-79
2022/10/15 03:52:40;;;;;;;3.67;3.10;;;11.50;99.90;;;;;;4951408;29;20577;-80
2022/10/15 03:55:08;;;;;;;3.75;2.72;;;11.50;99.90;;;;;;4952319;29;20122;-78
2022/10/15 03:57:35;;;;;;;3.47;2.50;;;11.50;99.90;;;;;;4951837;29;20531;-81
2022/10/15 04:00:00;;;;;;;7.35;4.35;;;11.50;99.90;;;;;;4939661;29;20063;-81
2022/10/15 04:02:26;;;;;;;1.25;1.15;;;11.50;99.90;;;;;;4933756;29;20135;-81
2022/10/15 04:04:53;;;;;;;2.50;1.55;;;11.40;99.90;;;;;;4933470;29;20096;-79
2022/10/15 04:07:20;;;;;;;0.82;0.77;;;11.40;99.90;;;;;;4933553;29;20139;-81
2022/10/15 04:09:46;;;;;;;4.28;2.15;;;11.30;99.90;;;;;;4934274;29;20403;-79
2022/10/15 04:12:11;;;;;;;5.55;2.67;;;11.30;99.90;;;;;;4935058;29;20914;-79
2022/10/15 04:14:38;;;;;;;1.77;1.55;;;11.30;99.90;;;;;;4934799;29;20040;-81
2022/10/15 04:17:03;;;;;;;3.83;2.63;;;11.40;99.90;;;;;;4934877;29;20055;-79
2022/10/15 04:19:29;;;;;;;1.65;1.50;;;11.40;99.90;;;;;;4936924;29;20395;-81
2022/10/15 04:21:55;;;;;;;8.63;3.53;;;11.30;99.90;;;;;;4939589;29;20043;-79
2022/10/15 04:24:21;;;;;;;3.88;2.47;;;11.30;99.90;;;;;;4955048;29;20470;-79
2022/10/15 04:26:46;;;;;;;7.63;3.17;;;11.30;99.90;;;;;;4954851;29;20110;-79
2022/10/15 04:29:12;;;;;;;11.93;2.88;;;11.30;99.90;;;;;;4944742;29;20079;-79
2022/10/15 04:31:38;;;;;;;5.43;3.35;;;11.30;99.90;;;;;;4953112;29;20051;-80
2022/10/15 04:34:04;;;;;;;3.28;2.03;;;11.30;99.90;;;;;;4936981;29;20055;-81
2022/10/15 04:36:29;;;;;;;3.65;2.90;;;11.30;99.90;;;;;;4953720;29;20126;-81
2022/10/15 04:38:55;;;;;;;6.22;1.98;;;11.30;99.90;;;;;;4953139;29;20506;-79
2022/10/15 04:41:21;;;;;;;31.08;1.85;;;11.30;99.90;;;;;;4918735;29;20062;-79
2022/10/15 04:43:46;;;;;;;2.30;1.65;;;11.30;99.90;;;;;;4933318;29;20050;-81
2022/10/15 04:46:12;;;;;;;4.55;3.17;;;11.20;99.90;;;;;;4933955;29;20526;-79
2022/10/15 04:48:38;;;;;;;2.80;2.60;;;11.20;99.90;;;;;;4934119;29;20043;-79
2022/10/15 04:51:04;;;;;;;9.57;3.45;;;11.20;99.90;;;;;;4944005;29;20058;-81
2022/10/15 04:53:30;;;;;;;0.93;0.88;;;11.20;99.90;;;;;;4952453;29;20047;-80
2022/10/15 04:56:03;;;;;;;2.67;1.88;;;11.20;99.90;;;;;;4953025;29;20039;-79
2022/10/15 04:58:31;;;;;;;5.32;2.67;;;11.20;99.90;;;;;;4953116;29;20039;-79
2022/10/15 05:01:11;;;;;;;3.17;2.78;;;11.10;99.90;;;;;;4942846;29;20047;-83
2022/10/15 05:03:38;;;;;;;3.58;2.17;;;11.20;99.90;;;;;;4942076;29;20055;-81
2022/10/15 05:06:09;;;;;;;3.63;2.63;;;11.10;99.90;;;;;;4966989;28;20046;-81
2022/10/15 05:08:36;;;;;;;5.90;3.22;;;11.00;99.90;;;;;;4972565;28;20664;-82
2022/10/15 05:11:26;;;;;;;9.18;3.15;;;11.00;99.90;;;;;;4990186;28;20058;-80
2022/10/15 05:13:54;;;;;;;2.15;1.95;;;11.70;99.90;;;;;;4989455;28;20482;-81
2022/10/15 05:16:22;;;;;;;3.13;2.17;;;11.00;99.90;;;;;;4990931;28;20050;-80
2022/10/15 05:18:56;;;;;;;5.13;2.90;;;11.00;99.90;;;;;;4991074;28;20046;-81
2022/10/15 05:21:22;;;;;;;4.10;2.30;;;11.00;99.90;;;;;;4990933;28;20058;-81
2022/10/15 05:23:49;;;;;;;3.42;2.47;;;11.00;99.90;;;;;;4978288;28;20054;-79
2022/10/15 05:26:17;;;;;;;6.22;3.40;;;11.00;99.90;;;;;;4971142;28;20078;-80
2022/10/15 05:28:43;;;;;;;1.80;1.63;;;11.00;99.90;;;;;;4970689;28;20047;-80
2022/10/15 05:31:14;;;;;;;3.58;2.47;;;10.90;99.90;;;;;;4975846;28;20049;-81
2022/10/15 05:33:40;;;;;;;9.38;3.33;;;10.90;99.90;;;;;;4991512;28;20191;-81
2022/10/15 05:36:32;;;;;;;4.28;2.85;;;11.10;99.90;;;;;;4991054;28;20042;-81
2022/10/15 05:39:00;;;;;;;3.55;1.92;;;10.90;99.90;;;;;;4986731;28;20576;-81
2022/10/15 05:41:27;;;;;;;5.68;3.42;;;10.90;99.90;;;;;;4971030;28;20055;-81
2022/10/15 05:43:55;;;;;;;5.65;3.80;;;10.90;99.90;;;;;;4972273;28;20133;-78
2022/10/15 05:46:21;;;;;;;2.63;2.30;;;10.90;99.90;;;;;;4989806;28;20078;-81
2022/10/15 05:48:52;;;;;;;7.18;3.65;;;10.90;99.90;;;;;;4985234;28;20432;-79
2022/10/15 05:51:18;;;;;;;3.17;1.92;;;10.80;99.90;;;;;;4964821;28;20045;-79
2022/10/15 05:53:45;;;;;;;5.82;4.78;;;10.90;99.90;;;;;;4967169;28;20075;-80
2022/10/15 05:56:12;;;;;;;3.53;3.20;;;10.90;99.90;;;;;;4969153;28;20061;-80
2022/10/15 05:58:37;;;;;;;5.93;3.00;;;10.90;99.90;;;;;;4968621;28;20897;-80
2022/10/15 06:01:06;;;;;;;5.43;2.88;;;11.00;99.90;;;;;;4968645;28;20134;-81
2022/10/15 06:03:32;;;;;;;4.20;2.80;;;11.00;99.90;;;;;;4968780;28;20061;-79
2022/10/15 06:05:58;;;;;;;5.60;3.20;;;11.00;99.90;;;;;;4968818;28;20046;-80
2022/10/15 06:08:23;;;;;;;6.65;3.22;;;11.00;99.90;;;;;;4969096;28;20118;-81
2022/10/15 06:10:49;;;;;;;3.72;2.88;;;11.10;99.90;;;;;;4969377;28;20055;-80
2022/10/15 06:13:15;;;;;;;3.95;2.83;;;11.00;99.90;;;;;;4968432;28;20412;-79
2022/10/15 06:15:43;;;;;;;5.18;3.58;;;11.10;99.90;;;;;;4969187;28;20057;-82
2022/10/15 06:18:09;;;;;;;2.50;2.00;;;11.10;99.90;;;;;;4971255;28;20047;-79
2022/10/15 06:20:36;;;;;;;3.90;3.35;;;11.10;99.90;;;;;;4969646;28;20050;-79
2022/10/15 06:23:03;;;;;;;6.82;2.88;;;11.10;99.90;;;;;;4987724;28;20100;-79
2022/10/15 06:25:28;;;;;;;6.07;4.22;;;11.10;99.90;;;;;;4987486;28;20054;-81
2022/10/15 06:27:54;;;;;;;4.30;3.10;;;11.20;99.90;;;;;;4987344;28;20038;-80
2022/10/15 06:30:20;;;;;;;3.95;3.17;;;11.20;99.90;;;;;;4974733;28;20042;-81
2022/10/15 06:32:50;;;;;;;3.80;3.45;;;11.30;99.90;;;;;;4985702;28;20049;-79
2022/10/15 06:35:18;;;;;;;8.45;5.90;;;11.30;99.90;;;;;;4986213;28;20046;-80
2022/10/15 06:37:43;;;;;;;5.18;3.70;;;11.30;99.90;;;;;;4985763;28;20105;-79
2022/10/15 06:40:10;;;;;;;5.53;3.88;;;11.40;99.90;;;;;;4985205;28;20046;-81
2022/10/15 06:42:35;;;;;;;3.30;2.08;;;11.40;99.90;;;;;;4986112;28;20532;-81
2022/10/15 06:45:01;;;;;;;5.15;3.45;;;11.40;99.90;;;;;;4985353;28;20122;-79
2022/10/15 06:47:27;;;;;;;9.32;4.95;;;11.50;99.90;;;;;;4991562;28;20046;-82
2022/10/15 06:49:52;;;;;;;8.02;3.53;;;11.50;99.90;;;;;;4989362;28;20158;-80
2022/10/15 06:52:19;;;;;;;4.75;4.28;;;11.50;99.90;;;;;;4985060;28;20069;-82
2022/10/15 06:54:45;;;;;;;5.00;2.85;;;11.50;99.90;;;;;;4986249;28;20050;-82
2022/10/15 06:57:11;;;;;;;6.00;3.50;;;11.50;99.90;;;;;;4986060;28;20069;-87
2022/10/15 06:59:36;;;;;;;4.75;2.97;;;11.60;99.90;;;;;;4981570;28;20069;-87
2022/10/15 07:02:02;;;;;;;11.52;6.00;;;11.60;99.90;;;;;;4965421;28;20472;-79
2022/10/15 07:04:27;;;;;;;4.03;3.30;;;11.60;99.90;;;;;;4964985;28;20057;-81
2022/10/15 07:06:53;;;;;;;4.38;3.42;;;11.60;99.90;;;;;;4966496;28;20054;-79
2022/10/15 07:09:19;;;;;;;5.63;3.90;;;11.70;99.90;;;;;;4966108;28;20050;-81
2022/10/15 07:11:45;;;;;;;6.60;3.75;;;11.70;99.90;;;;;;4977656;28;20104;-81
2022/10/15 07:14:11;;;;;;;1.90;1.80;;;11.70;99.90;;;;;;4984820;28;20074;-80
2022/10/15 07:16:38;;;;;;;4.13;3.13;;;11.70;99.90;;;;;;4984969;28;20074;-80
2022/10/15 07:19:04;;;;;;;10.20;3.45;;;11.80;99.90;;;;;;4984999;28;20129;-79
2022/10/15 07:21:30;;;;;;;6.72;2.42;;;11.80;99.90;;;;;;4965701;28;20161;-79
2022/10/15 07:23:56;;;;;;;2.95;2.10;;;11.90;99.90;;;;;;4965456;28;20572;-80
2022/10/15 07:26:21;;;;;;;4.55;3.30;;;11.90;99.90;;;;;;4965134;28;20504;-80
2022/10/15 07:28:47;;;;;;;5.32;3.60;;;12.00;99.90;;;;;;4965074;28;20093;-80
2022/10/15 07:31:13;;;;;;;5.70;3.30;;;12.10;99.90;;;;;;4965232;28;20101;-81
2022/10/15 07:33:41;;;;;;;11.23;3.22;;;12.20;99.90;;;;;;4965569;28;20047;-79
2022/10/15 07:36:10;;;;;;;3.35;2.75;;;12.30;99.90;;;;;;4980387;28;20042;-79
2022/10/15 07:38:36;;;;;;;3.65;2.50;;;12.30;99.90;;;;;;4985444;28;20050;-80
2022/10/15 07:41:03;;;;;;;3.40;2.17;;;12.30;99.90;;;;;;4984345;28;20416;-80
2022/10/15 07:43:29;;;;;;;4.95;2.85;;;12.40;99.90;;;;;;4966075;28;20073;-79
2022/10/15 07:45:55;;;;;;;4.22;2.65;;;12.40;99.90;;;;;;4983889;28;20046;-79
2022/10/15 07:48:21;;;;;;;4.60;2.90;;;12.40;99.90;;;;;;4983856;28;20054;-79
2022/10/15 07:50:46;;;;;;;7.35;3.03;;;12.30;99.90;;;;;;4978810;28;20058;-78
2022/10/15 07:53:12;;;;;;;6.25;3.10;;;12.30;99.90;;;;;;4965061;28;20046;-79
2022/10/15 07:55:38;;;;;;;20.67;3.88;;;12.30;99.90;;;;;;4964617;28;20050;-80
2022/10/15 07:58:07;;;;;;;4.82;3.80;;;12.30;99.90;;;;;;4966754;28;20108;-79
2022/10/15 08:00:32;;;;;;;4.40;3.38;;;12.30;99.90;;;;;;4984268;28;20042;-80
2022/10/15 08:02:58;;;;;;;3.38;2.63;;;12.30;99.90;;;;;;4983686;28;20532;-78
2022/10/15 08:05:24;;;;;;;3.90;3.58;;;12.30;99.90;;;;;;4984208;28;20149;-80
2022/10/15 08:07:49;;;;;;;3.22;2.63;;;12.40;99.90;;;;;;4983670;28;20050;-80
2022/10/15 08:10:15;;;;;;;5.22;4.03;;;12.40;99.90;;;;;;4984911;28;20053;-81
2022/10/15 08:12:41;;;;;;;15.30;5.10;;;12.40;99.90;;;;;;4966693;28;20146;-79
2022/10/15 08:15:07;;;;;;;23.25;3.17;;;12.40;99.90;;;;;;4983537;28;20128;-81
2022/10/15 08:17:33;;;;;;;2.53;2.30;;;12.60;99.90;;;;;;4980329;28;20110;-82
2022/10/15 08:19:58;;;;;;;5.18;3.95;;;12.70;99.90;;;;;;4984140;28;20468;-80
2022/10/15 08:22:24;;;;;;;2.55;2.25;;;12.90;99.90;;;;;;4983883;28;20053;-80
2022/10/15 08:24:51;;;;;;;13.32;5.95;;;13.10;99.90;;;;;;4983519;28;20061;-80
2022/10/15 08:27:16;;;;;;;8.35;4.50;;;13.30;99.90;;;;;;4983977;28;20046;-82
2022/10/15 08:29:42;;;;;;;2.58;2.33;;;13.50;99.90;;;;;;4983470;28;20473;-81
2022/10/15 08:32:08;;;;;;;4.25;2.97;;;13.70;99.90;;;;;;4983641;28;20038;-80
2022/10/15 08:34:33;;;;;;;6.22;3.75;;;13.70;99.90;;;;;;4981433;28;20481;-80
2022/10/15 08:37:06;;;;;;;5.75;3.22;;;13.80;99.90;;;;;;5118897;27;20481;-77
2022/10/15 08:39:31;;;;;;;4.70;3.00;;;13.80;99.90;;;;;;5099749;28;20070;-79
2022/10/15 08:42:04;;;;;;;3.83;2.92;;;13.80;99.90;;;;;;5101146;28;20048;-78
2022/10/15 08:44:37;;;;;;;5.45;3.50;;;13.90;99.90;;;;;;5097765;28;20561;-81
2022/10/15 08:47:22;;;;;;;6.82;4.25;;;13.90;99.90;;;;;;5083690;28;20048;-81
2022/10/15 08:49:57;;;;;;;5.53;2.17;;;13.70;99.90;;;;;;5082472;28;20407;-79
2022/10/15 08:52:41;;;;;;;3.33;2.88;;;13.70;99.90;;;;;;5083662;28;20078;-80
2022/10/15 08:55:30;;;;;;;9.95;4.03;;;13.50;99.90;;;;;;5081407;28;20052;-78
2022/10/15 08:58:12;;;;;;;4.47;2.65;;;13.50;99.90;;;;;;5080459;28;20059;-77
2022/10/15 09:00:48;;;;;;;5.38;3.00;;;13.60;99.90;;;;;;5079895;28;20465;-78
2022/10/15 09:03:23;;;;;;;6.32;2.75;;;13.60;99.90;;;;;;5080080;28;20044;-81
2022/10/15 09:06:04;;;;;;;3.30;2.40;;;13.70;99.90;;;;;;5080155;28;20052;-82
2022/10/15 09:08:52;;;;;;;3.33;2.05;;;13.80;99.90;;;;;;5080660;28;20089;-82
2022/10/15 09:11:18;;;;;;;8.38;3.50;;;14.20;99.90;;;;;;5079905;28;20056;-83
2022/10/15 09:13:45;;;;;;;3.55;2.83;;;14.40;99.90;;;;;;5082473;28;20047;-82
2022/10/15 09:16:31;;;;;;;3.72;2.33;;;14.50;99.90;;;;;;5082438;28;20098;-83
2022/10/15 09:18:59;;;;;;;9.07;4.35;;;14.50;99.90;;;;;;5081910;28;20103;-81
2022/10/15 09:21:26;;;;;;;10.93;3.47;;;14.50;99.90;;;;;;5077777;28;20105;-82
2022/10/15 09:23:57;;;;;;;3.83;2.35;;;14.60;99.90;;;;;;5071443;28;20421;-80
2022/10/15 09:26:51;;;;;;;7.35;2.92;;;14.60;99.90;;;;;;5075353;28;20049;-83
2022/10/15 09:29:40;;;;;;;4.00;3.00;;;14.70;99.90;;;;;;5067063;28;20517;-81
2022/10/15 09:32:22;;;;;;;2.08;1.35;;;14.60;99.90;;;;;;5078309;28;20404;-80
2022/10/15 09:34:53;;;;;;;3.08;2.17;;;14.50;99.90;;;;;;5059790;28;20049;-81
2022/10/15 09:37:31;;;;;;;3.60;2.78;;;14.40;99.90;;;;;;5059991;28;20059;-80
2022/10/15 09:40:17;;;;;;;5.47;3.88;;;14.40;99.90;;;;;;5058942;28;20511;-82
2022/10/15 09:42:43;;;;;;;3.95;2.30;;;14.20;99.90;;;;;;5058237;28;20041;-82
2022/10/15 09:45:12;;;;;;;9.02;2.30;;;14.10;99.90;;;;;;5065266;28;20127;-79
2022/10/15 09:47:40;;;;;;;3.58;2.58;;;14.00;99.90;;;;;;5070952;28;20052;-80
2022/10/15 09:50:10;;;;;;;5.22;2.20;;;14.00;99.90;;;;;;5053694;28;20116;-81
2022/10/15 09:53:23;;;;;;;4.50;2.83;;;13.90;99.90;;;;;;5063158;28;20028;-82
2022/10/15 09:55:52;;;;;;;2.95;2.60;;;13.90;99.90;;;;;;5027560;28;20037;-81
2022/10/15 09:58:27;;;;;;;2.92;2.47;;;13.80;99.90;;;;;;5022621;28;20076;-77
2022/10/15 10:00:59;;;;;;;2.08;1.83;;;13.70;99.90;;;;;;5036600;28;20460;-80
2022/10/15 10:03:31;;;;;;;3.38;2.42;;;13.80;99.90;;;;;;5046344;28;20052;-80
2022/10/15 10:06:22;;;;;;;3.63;2.83;;;13.80;99.90;;;;;;5045673;28;20048;-81
2022/10/15 10:08:58;;;;;;;1.88;1.30;;;13.90;99.90;;;;;;5043807;28;20061;-81
2022/10/15 10:11:26;;;;;;;2.40;1.38;;;13.80;99.90;;;;;;5046344;28;20045;-81
2022/10/15 10:13:57;;;;;;;1.35;1.08;;;13.70;99.90;;;;;;5044589;28;20045;-80
2022/10/15 10:16:24;;;;;;;4.82;2.40;;;13.70;99.90;;;;;;5063346;28;20141;-80
2022/10/15 10:19:07;;;;;;;3.58;2.42;;;13.60;99.90;;;;;;5065609;28;20126;-79
2022/10/15 10:21:36;;;;;;;2.65;1.70;;;13.60;99.90;;;;;;5067867;28;20045;-78
2022/10/15 10:24:29;;;;;;;3.33;1.98;;;13.60;99.90;;;;;;5069324;28;20056;-81
2022/10/15 10:26:56;;;;;;;1.77;1.50;;;13.60;99.90;;;;;;5045386;28;20071;-80
2022/10/15 10:29:24;;;;;;;1.98;1.55;;;13.60;99.90;;;;;;5046088;28;20124;-80
2022/10/15 10:31:51;;;;;;;2.05;1.65;;;13.70;99.90;;;;;;5054952;28;20052;-79
2022/10/15 10:34:36;;;;;;;1.98;1.80;;;13.70;99.90;;;;;;5044124;28;20052;-80
2022/10/15 10:37:03;;;;;;;5.18;2.03;;;13.70;99.90;;;;;;5043823;28;20057;-81
2022/10/15 10:39:31;;;;;;;2.13;1.88;;;13.80;99.90;;;;;;5044025;28;20045;-80
2022/10/15 10:42:06;;;;;;;0.70;0.65;;;14.50;99.90;;;;;;5044160;28;20087;-80
2022/10/15 10:44:36;;;;;;;2.88;1.75;;;13.80;99.90;;;;;;5045893;28;20049;-81
2022/10/15 10:47:07;;;;;;;4.80;2.30;;;14.00;99.90;;;;;;5063958;28;20048;-80
2022/10/15 10:49:36;;;;;;;6.85;2.55;;;14.10;99.90;;;;;;5064561;28;20457;-80
2022/10/15 10:52:03;;;;;;;2.35;1.80;;;14.40;99.90;;;;;;5063201;28;20044;-80
2022/10/15 10:54:30;;;;;;;7.57;1.10;;;14.60;99.90;;;;;;5063861;28;20055;-80
2022/10/15 10:56:58;;;;;;;4.47;1.70;;;14.60;99.90;;;;;;5044898;28;20076;-81
2022/10/15 10:59:35;;;;;;;5.28;3.00;;;14.60;99.90;;;;;;5042891;28;20040;-79
2022/10/15 11:02:05;;;;;;;6.40;1.83;;;14.70;99.90;;;;;;5060957;28;20048;-80
2022/10/15 11:04:33;;;;;;;1.42;1.27;;;14.70;99.90;;;;;;5042700;28;21097;-80
2022/10/15 11:07:14;;;;;;;5.72;3.08;;;14.90;99.90;;;;;;5043570;28;20048;-78
2022/10/15 11:10:05;;;;;;;2.22;1.80;;;14.80;99.90;;;;;;5042821;28;20051;-77
2022/10/15 11:13:00;;;;;;;3.42;2.05;;;15.20;99.90;;;;;;5042481;28;20138;-77
2022/10/15 11:15:50;;;;;;;2.00;1.60;;;15.50;99.90;;;;;;5048855;28;20067;-77
2022/10/15 11:18:58;;;;;;;1.67;1.48;;;15.90;79.20;;;;;;5062096;28;20044;-76
2022/10/15 11:21:48;;;;;;;1.35;1.25;;;15.80;1.00;;;;;;5062338;28;20071;-78
2022/10/15 11:24:31;;;;;;;2.67;2.15;;;15.90;1.00;;;;;;5062934;28;20048;-78
2022/10/15 11:27:32;;;;;;;4.97;2.25;;;16.10;1.00;;;;;;5061646;28;20100;-77
2022/10/15 11:30:34;;;;;;;1.38;1.02;;;16.20;99.90;;;;;;5062344;28;20485;-78
2022/10/15 11:33:37;;;;;;;1.42;1.30;;;16.00;99.90;;;;;;5048455;28;20128;-80
2022/10/15 11:36:27;;;;;;;1.50;1.05;;;16.00;99.90;;;;;;5042350;28;20494;-79
2022/10/15 11:39:25;;;;;;;5.82;1.20;;;15.80;1.00;;;;;;5042030;28;20052;-80
2022/10/15 11:42:11;;;;;;;0.85;0.80;;;15.80;1.00;;;;;;5038047;28;20059;-78
2022/10/15 11:44:49;;;;;;;2.38;1.77;;;15.80;1.00;;;;;;5061969;28;20044;-78
2022/10/15 11:47:23;;;;;;;5.47;2.40;;;15.80;99.90;;;;;;5041763;28;20044;-77
2022/10/15 11:49:54;;;;;;;4.25;2.17;;;15.80;1.00;;;;;;5041333;28;20088;-77
2022/10/15 11:52:41;;;;;;;5.50;2.97;;;15.90;1.00;;;;;;5041464;28;20120;-77
2022/10/15 11:55:33;;;;;;;4.90;2.38;;;15.90;99.90;;;;;;5041992;28;20511;-79
2022/10/15 11:58:05;;;;;;;0.25;0.25;;;16.00;99.90;;;;;;5042089;28;20682;-78
2022/10/15 12:00:48;;;;;;;1.67;1.33;;;15.80;99.90;;;;;;5041877;28;20071;-78
2022/10/15 12:03:18;;;;;;;2.47;1.75;;;15.80;1.00;;;;;;5052224;28;20127;-76
2022/10/15 12:05:57;;;;;;;4.57;2.25;;;15.90;99.90;;;;;;5054342;28;20044;-79
2022/10/15 12:08:28;;;;;;;2.28;1.33;;;15.80;99.90;;;;;;5045779;28;20064;-77
2022/10/15 12:11:26;;;;;;;1.40;1.27;;;15.70;1.00;;;;;;5040865;28;20059;-77
2022/10/15 12:14:06;;;;;;;0.32;0.30;;;15.70;1.00;;;;;;5045004;28;20119;-79
2022/10/15 12:16:44;;;;;;;1.30;1.08;;;15.80;99.90;;;;;;5050357;28;20137;-79
2022/10/15 12:19:17;;;;;;;4.55;1.77;;;15.80;1.00;;;;;;5043458;28;20052;-81
2022/10/15 12:22:00;;;;;;;1.45;0.70;;;15.90;99.90;;;;;;5043995;28;20048;-80
2022/10/15 12:24:40;;;;;;;1.83;1.45;;;15.80;1.00;;;;;;5042311;28;20136;-80
2022/10/15 12:27:20;;;;;;;2.58;1.63;;;15.80;1.00;;;;;;5044000;28;20051;-80
2022/10/15 12:29:48;;;;;;;3.85;2.45;;;15.70;1.00;;;;;;5043783;28;20053;-81
2022/10/15 12:32:24;;;;;;;2.30;1.23;;;16.60;1.00;;;;;;5051391;28;20053;-81
2022/10/15 12:34:58;;;;;;;1.70;1.10;;;16.00;1.00;;;;;;5063058;28;20060;-80
2022/10/15 12:37:31;;;;;;;2.25;1.08;;;16.10;11.60;;;;;;5063255;28;20066;-80
2022/10/15 12:40:04;;;;;;;3.70;1.27;;;15.70;61.30;;;;;;5062091;28;20449;-80
2022/10/15 12:42:35;;;;;;;2.38;1.05;;;15.60;76.20;;;;;;5062483;28;20048;-81
2022/10/15 12:45:05;;;;;;;3.75;2.10;;;15.40;99.90;;;;;;5062459;28;20049;-81
2022/10/15 12:47:52;;;;;;;1.42;1.13;;;15.20;99.90;;;;;;5062988;28;20055;-81
2022/10/15 12:50:23;;;;;;;5.93;0.85;;;15.20;99.90;;;;;;5062977;28;20048;-81
2022/10/15 12:52:58;;;;;;;1.98;1.77;;;15.20;99.90;;;;;;5053578;28;20098;-81
2022/10/15 12:55:32;;;;;;;2.45;1.50;;;15.10;99.90;;;;;;5041919;28;20048;-82
2022/10/15 12:58:01;;;;;;;1.15;1.05;;;15.10;99.90;;;;;;5047087;28;20148;-82
2022/10/15 13:00:30;;;;;;;5.03;1.13;;;15.10;99.90;;;;;;5061123;28;20041;-82
2022/10/15 13:03:06;;;;;;;7.40;2.50;;;15.10;99.90;;;;;;5053955;28;20036;-81
2022/10/15 13:05:34;;;;;;;1.25;0.88;;;15.00;99.90;;;;;;5063096;28;20048;-79
2022/10/15 13:08:03;;;;;;;2.33;0.95;;;14.90;99.90;;;;;;5063075;28;20126;-78
2022/10/15 13:10:37;;;;;;;0.93;0.88;;;15.20;99.90;;;;;;5063538;28;20083;-79
2022/10/15 13:13:06;;;;;;;1.20;1.10;;;14.90;99.90;;;;;;5051638;28;20165;-78